Time;durP1;ratioP1;P1;durP2;ratioP2;P2;SDS_P1;SDS_P2;PMS_P1;PMS_P2;Temp;Humidity;BMP_temperature;BMP_pressure;BME280_temperature;BME280_humidity;BME280_pressure;Samples;Min_cycle;Max_cycle;Signal;HPM_P1;HPM_P2
2022/12/11 00:01:23;;;;;;;63.20;26.83;;;-0.40;99.90;;;;;;5052692;28;20478;-56
2022/12/11 00:03:49;;;;;;;71.30;25.47;;;-0.40;99.90;;;;;;5050950;28;20043;-56
2022/12/11 00:06:18;;;;;;;70.90;25.93;;;-0.40;99.90;;;;;;5052462;28;20041;-56
2022/12/11 00:08:44;;;;;;;78.00;28.25;;;-0.40;99.90;;;;;;5051693;28;20284;-56
2022/12/11 00:11:15;;;;;;;80.40;27.98;;;-0.40;99.90;;;;;;5050637;28;20043;-54
2022/12/11 00:13:41;;;;;;;89.10;30.67;;;-0.40;99.90;;;;;;5051161;28;20033;-51
2022/12/11 00:16:07;;;;;;;85.25;29.38;;;-0.40;99.90;;;;;;5052016;28;20079;-52
2022/12/11 00:18:33;;;;;;;80.07;28.02;;;-0.40;99.90;;;;;;5051769;28;20037;-52
2022/12/11 00:21:03;;;;;;;84.07;27.80;;;-0.40;99.90;;;;;;5051692;28;20464;-54
2022/12/11 00:23:29;;;;;;;80.10;27.20;;;-0.40;99.90;;;;;;5050215;28;20103;-55
2022/12/11 00:25:55;;;;;;;68.10;23.38;;;-0.40;99.90;;;;;;5050955;28;20522;-55
2022/12/11 00:28:21;;;;;;;68.47;24.15;;;-0.40;99.90;;;;;;5051230;28;20320;-53
2022/12/11 00:30:47;;;;;;;66.47;24.15;;;-0.40;99.90;;;;;;5050884;28;20085;-51
2022/12/11 00:33:13;;;;;;;70.65;27.05;;;-0.40;99.90;;;;;;5050447;28;20056;-53
2022/12/11 00:35:44;;;;;;;67.13;23.65;;;-0.40;99.90;;;;;;5050928;28;20541;-52
2022/12/11 00:38:18;;;;;;;69.00;24.75;;;-0.30;99.90;;;;;;5050961;28;20103;-54
2022/12/11 00:40:44;;;;;;;75.65;25.35;;;-0.30;99.90;;;;;;5051204;28;20041;-54
2022/12/11 00:43:10;;;;;;;66.38;24.65;;;-0.30;99.90;;;;;;5049621;28;20387;-51
2022/12/11 00:45:46;;;;;;;68.97;26.58;;;-0.30;99.90;;;;;;5051516;28;20036;-56
2022/12/11 00:48:13;;;;;;;88.43;29.55;;;-0.30;99.90;;;;;;5050488;28;20053;-51
2022/12/11 00:50:39;;;;;;;67.65;24.92;;;-0.30;99.90;;;;;;5050489;28;20041;-56
2022/12/11 00:53:05;;;;;;;75.05;26.45;;;-0.30;99.90;;;;;;5050418;28;20040;-51
2022/12/11 00:55:34;;;;;;;;;;;-0.30;99.90;;;;;;5051591;28;20127;-51
2022/12/11 00:58:00;;;;;;;73.28;27.00;;;-0.30;99.90;;;;;;5050267;28;20381;-54
2022/12/11 01:00:26;;;;;;;86.97;27.33;;;-0.30;99.90;;;;;;5051375;28;20041;-53
2022/12/11 01:02:51;;;;;;;67.83;24.60;;;-0.20;99.90;;;;;;5050413;28;20044;-53
2022/12/11 01:05:17;;;;;;;74.77;27.70;;;-0.20;99.90;;;;;;5049031;28;20220;-54
2022/12/11 01:07:43;;;;;;;76.35;26.85;;;-0.20;99.90;;;;;;5050406;28;20037;-55
2022/12/11 01:10:22;;;;;;;88.03;30.57;;;-0.20;99.90;;;;;;5050788;28;20255;-56
2022/12/11 01:12:52;;;;;;;79.47;27.10;;;-0.20;99.90;;;;;;5050160;28;20418;-55
2022/12/11 01:15:19;;;;;;;96.88;30.00;;;-0.20;99.90;;;;;;5050034;28;20098;-54
2022/12/11 01:17:45;;;;;;;89.57;30.48;;;-0.10;99.90;;;;;;5048836;28;20041;-54
2022/12/11 01:20:11;;;;;;;82.53;28.83;;;-0.10;99.90;;;;;;5050435;28;20359;-53
2022/12/11 01:22:36;;;;;;;96.17;30.93;;;-0.10;99.90;;;;;;5050126;28;20102;-53
2022/12/11 01:25:02;;;;;;;93.97;31.87;;;-0.10;99.90;;;;;;5049541;28;20286;-53
2022/12/11 01:27:28;;;;;;;92.50;31.27;;;-0.10;99.90;;;;;;5050237;28;20434;-55
2022/12/11 01:29:53;;;;;;;95.87;30.90;;;-0.10;99.90;;;;;;5050261;28;20033;-55
2022/12/11 01:32:19;;;;;;;96.47;32.17;;;-0.10;99.90;;;;;;5050038;28;20048;-55
2022/12/11 01:34:44;;;;;;;96.60;30.80;;;-0.10;99.90;;;;;;5049411;28;20047;-56
2022/12/11 01:37:10;;;;;;;91.97;31.40;;;-0.10;99.90;;;;;;5050150;28;20037;-54
2022/12/11 01:39:39;;;;;;;93.97;30.90;;;-0.10;99.90;;;;;;5050199;28;20051;-56
2022/12/11 01:42:09;;;;;;;80.78;28.30;;;-0.10;99.90;;;;;;5049446;28;20033;-55
2022/12/11 01:44:34;;;;;;;89.45;31.45;;;-0.10;99.90;;;;;;5048945;28;20029;-56
2022/12/11 01:47:00;;;;;;;90.40;32.43;;;-0.10;99.90;;;;;;5048884;28;20037;-56
2022/12/11 01:49:27;;;;;;;86.20;30.47;;;-0.10;99.90;;;;;;5050135;28;20125;-56
2022/12/11 01:52:01;;;;;;;88.20;28.00;;;-0.10;99.90;;;;;;5049639;28;20309;-56
2022/12/11 01:54:28;;;;;;;75.88;28.05;;;-0.10;99.90;;;;;;5048374;28;20041;-56
2022/12/11 01:56:57;;;;;;;84.20;28.55;;;-0.20;99.90;;;;;;5049385;28;20543;-52
2022/12/11 01:59:25;;;;;;;74.50;25.52;;;-0.10;99.90;;;;;;5048783;28;20060;-55
2022/12/11 02:01:59;;;;;;;86.85;28.42;;;-0.10;99.90;;;;;;5049279;28;20056;-53
2022/12/11 02:04:25;;;;;;;82.88;30.45;;;-0.10;99.90;;;;;;5048851;28;20498;-51
2022/12/11 02:06:52;;;;;;;76.53;27.77;;;-0.10;99.90;;;;;;5049122;28;20058;-51
2022/12/11 02:09:30;;;;;;;84.13;25.08;;;-0.10;99.90;;;;;;5049656;28;20044;-53
2022/12/11 02:12:19;;;;;;;75.97;27.33;;;-0.10;99.90;;;;;;5049299;28;20052;-54
2022/12/11 02:15:10;;;;;;;71.72;25.27;;;-0.10;99.90;;;;;;5049064;28;20127;-52
2022/12/11 02:18:01;;;;;;;77.95;26.73;;;-0.10;99.90;;;;;;5049111;28;20132;-53
2022/12/11 02:20:37;;;;;;;80.10;27.08;;;-0.10;99.90;;;;;;5049402;28;20052;-52
2022/12/11 02:23:11;;;;;;;78.45;26.48;;;-0.10;99.90;;;;;;5047894;28;20072;-52
2022/12/11 02:26:06;;;;;;;78.10;27.20;;;-0.10;99.90;;;;;;5049298;28;20072;-54
2022/12/11 02:28:37;;;;;;;67.80;24.15;;;-0.10;99.90;;;;;;5047378;28;20048;-55
2022/12/11 02:31:05;;;;;;;73.35;25.77;;;-0.10;99.90;;;;;;5049777;28;20045;-54
2022/12/11 02:33:51;;;;;;;78.40;27.17;;;0.00;99.90;;;;;;5048046;28;20506;-53
2022/12/11 02:36:17;;;;;;;74.80;27.63;;;0.00;99.90;;;;;;5029626;28;20080;-55
2022/12/11 02:38:49;;;;;;;;;;;0.00;99.90;;;;;;5040738;28;20414;-55
2022/12/11 02:41:16;;;;;;;80.55;25.58;;;0.00;99.90;;;;;;5049058;28;20059;-54
2022/12/11 02:43:43;;;;;;;73.20;27.13;;;0.10;99.90;;;;;;5047977;28;20570;-55
2022/12/11 02:46:10;;;;;;;76.03;26.25;;;0.00;99.90;;;;;;5048964;28;20510;-56
2022/12/11 02:48:36;;;;;;;87.57;29.73;;;0.00;99.90;;;;;;5048693;28;20056;-53
2022/12/11 02:51:04;;;;;;;;;;;0.10;99.90;;;;;;5049591;28;20086;-56
2022/12/11 02:53:31;;;;;;;72.32;24.55;;;0.10;99.90;;;;;;5048058;28;19963;-55
2022/12/11 02:56:07;;;;;;;86.97;29.45;;;0.10;99.90;;;;;;5048829;28;20052;-54
2022/12/11 02:58:35;;;;;;;87.05;26.20;;;0.10;99.90;;;;;;5048938;28;20332;-52
2022/12/11 03:01:00;;;;;;;81.97;29.30;;;0.10;99.90;;;;;;5049310;28;20045;-55
2022/12/11 03:03:28;;;;;;;91.03;29.73;;;0.10;99.90;;;;;;5046570;28;20501;-53
2022/12/11 03:05:54;;;;;;;89.82;30.05;;;0.10;99.90;;;;;;5050637;28;20788;-55
2022/12/11 03:08:20;;;;;;;102.43;29.95;;;0.10;99.90;;;;;;5052476;28;20131;-54
2022/12/11 03:10:45;;;;;;;90.60;29.13;;;0.10;99.90;;;;;;5053064;28;20033;-56
2022/12/11 03:13:14;;;;;;;92.23;28.93;;;0.10;99.90;;;;;;5051926;28;20049;-56
2022/12/11 03:16:05;;;;;;;90.88;30.67;;;0.20;99.90;;;;;;5052667;28;20045;-56
2022/12/11 03:18:34;;;;;;;101.65;31.05;;;0.20;99.90;;;;;;5052295;28;20459;-56
2022/12/11 03:21:20;;;;;;;101.75;30.40;;;0.20;99.90;;;;;;5052341;28;20048;-56
2022/12/11 03:23:46;;;;;;;109.18;31.70;;;0.20;99.90;;;;;;5051261;28;20032;-56
2022/12/11 03:26:15;;;;;;;100.75;34.20;;;0.20;99.90;;;;;;5051443;28;20163;-56
2022/12/11 03:28:49;;;;;;;102.82;32.75;;;0.20;99.90;;;;;;5052540;28;20047;-55
2022/12/11 03:31:28;;;;;;;106.18;33.60;;;0.20;99.90;;;;;;5052334;28;20052;-55
2022/12/11 03:33:58;;;;;;;109.15;31.52;;;0.20;99.90;;;;;;5051846;28;20493;-55
2022/12/11 03:36:31;;;;;;;101.80;33.25;;;0.20;99.90;;;;;;5052846;28;20494;-57
2022/12/11 03:39:20;;;;;;;120.47;32.75;;;0.20;99.90;;;;;;5052485;28;20044;-56
2022/12/11 03:41:49;;;;;;;113.40;32.97;;;0.20;99.90;;;;;;5052705;28;20124;-51
2022/12/11 03:44:15;;;;;;;117.38;33.10;;;0.20;99.90;;;;;;5051451;28;20112;-53
2022/12/11 03:46:44;;;;;;;101.57;30.80;;;0.20;99.90;;;;;;5051842;28;20080;-55
2022/12/11 03:49:16;;;;;;;110.15;31.77;;;0.20;99.90;;;;;;5050552;28;20417;-55
2022/12/11 03:51:45;;;;;;;93.20;30.38;;;0.20;99.90;;;;;;5041714;28;20033;-55
2022/12/11 03:54:10;;;;;;;103.13;32.25;;;0.20;99.90;;;;;;5041551;28;20044;-52
2022/12/11 03:56:39;;;;;;;115.17;32.87;;;0.10;99.90;;;;;;5051662;28;20521;-53
2022/12/11 03:59:05;;;;;;;115.13;32.70;;;0.10;99.90;;;;;;5051840;28;20044;-54
2022/12/11 04:01:30;;;;;;;96.43;30.60;;;0.20;99.90;;;;;;5052119;28;20063;-51
2022/12/11 04:03:56;;;;;;;107.63;32.97;;;0.20;99.90;;;;;;5050870;28;20129;-55
2022/12/11 04:06:22;;;;;;;92.40;32.63;;;0.20;99.90;;;;;;5051699;28;20091;-54
2022/12/11 04:08:47;;;;;;;106.50;32.93;;;0.20;99.90;;;;;;5051075;28;20536;-53
2022/12/11 04:16:41;;;;;;;99.32;31.73;;;0.20;99.90;;;;;;5051123;28;20044;-55
2022/12/11 04:24:37;;;;;;;94.47;31.60;;;0.20;99.90;;;;;;5050460;28;20077;-53
2022/12/11 04:27:03;;;;;;;98.18;30.90;;;0.20;99.90;;;;;;5050944;28;20041;-56
2022/12/11 04:29:29;;;;;;;98.10;30.60;;;0.20;99.90;;;;;;5051038;28;20056;-53
2022/12/11 04:31:54;;;;;;;97.53;34.80;;;0.20;99.90;;;;;;5051949;28;20148;-52
2022/12/11 04:34:20;;;;;;;98.47;31.30;;;0.20;99.90;;;;;;5050362;28;20040;-55
2022/12/11 04:36:46;;;;;;;96.00;33.33;;;0.20;99.90;;;;;;5051155;28;20040;-56
2022/12/11 04:39:11;;;;;;;98.53;30.77;;;0.20;99.90;;;;;;5051047;28;20051;-52
2022/12/11 04:41:37;;;;;;;102.67;30.93;;;0.20;99.90;;;;;;5050594;28;20045;-53
2022/12/11 04:44:04;;;;;;;107.28;34.15;;;0.20;99.90;;;;;;5050423;28;20048;-55
2022/12/11 04:46:29;;;;;;;102.38;32.38;;;0.20;99.90;;;;;;5051329;28;20414;-54
2022/12/11 04:48:55;;;;;;;97.53;32.00;;;0.20;99.90;;;;;;5049584;28;20029;-51
2022/12/11 04:51:21;;;;;;;97.38;29.98;;;0.20;99.90;;;;;;5050683;28;20033;-55
2022/12/11 04:53:47;;;;;;;96.00;32.50;;;0.20;99.90;;;;;;5050447;28;20041;-56
2022/12/11 04:56:14;;;;;;;112.60;33.03;;;0.30;99.90;;;;;;5051006;28;20075;-56
2022/12/11 04:58:41;;;;;;;100.55;31.02;;;0.30;99.90;;;;;;5050304;28;20037;-53
2022/12/11 05:01:12;;;;;;;94.50;31.00;;;0.30;99.90;;;;;;5050654;28;20040;-55
2022/12/11 05:03:38;;;;;;;105.53;31.60;;;0.30;99.90;;;;;;5049882;28;20037;-51
2022/12/11 05:06:04;;;;;;;95.47;33.97;;;0.30;99.90;;;;;;5050694;28;20098;-51
2022/12/11 05:08:29;;;;;;;83.30;30.42;;;0.30;99.90;;;;;;5050722;28;20401;-57
2022/12/11 05:11:00;;;;;;;100.93;33.40;;;0.30;99.90;;;;;;5050592;28;20049;-56
2022/12/11 05:13:27;;;;;;;85.72;30.77;;;0.30;99.90;;;;;;5048827;28;20105;-56
2022/12/11 05:15:53;;;;;;;90.68;34.45;;;0.30;99.90;;;;;;5050880;28;20067;-56
2022/12/11 05:18:19;;;;;;;91.00;32.28;;;0.30;99.90;;;;;;5050413;28;20045;-56
2022/12/11 05:20:55;;;;;;;83.70;29.65;;;0.30;99.90;;;;;;5050972;28;20404;-57
2022/12/11 05:23:24;;;;;;;82.22;29.20;;;0.30;99.90;;;;;;5049414;28;20037;-56
2022/12/11 05:25:57;;;;;;;83.07;30.83;;;0.30;99.90;;;;;;5049816;28;20078;-55
2022/12/11 05:28:24;;;;;;;88.03;30.55;;;0.30;99.90;;;;;;5049914;28;20048;-53
2022/12/11 05:30:55;;;;;;;81.75;31.70;;;0.30;99.90;;;;;;5050948;28;20045;-52
2022/12/11 05:33:21;;;;;;;87.95;33.55;;;0.30;99.90;;;;;;5049402;28;20045;-52
2022/12/11 05:35:47;;;;;;;91.00;30.53;;;0.30;99.90;;;;;;5050764;28;20047;-51
2022/12/11 05:38:13;;;;;;;99.38;30.52;;;0.30;99.90;;;;;;5049554;28;20041;-53
2022/12/11 05:40:38;;;;;;;83.43;30.47;;;0.30;99.90;;;;;;5050640;28;20055;-53
2022/12/11 05:43:04;;;;;;;77.13;27.23;;;0.30;99.90;;;;;;5049115;28;20467;-56
2022/12/11 05:45:29;;;;;;;86.60;26.77;;;0.30;99.90;;;;;;5050716;28;20579;-52
2022/12/11 05:47:55;;;;;;;79.93;27.17;;;0.30;99.90;;;;;;5049918;28;20033;-54
2022/12/11 05:50:20;;;;;;;86.37;29.83;;;0.30;99.90;;;;;;5049900;28;20167;-56
2022/12/11 05:52:46;;;;;;;95.07;33.47;;;0.30;99.90;;;;;;5049371;28;20569;-54
2022/12/11 05:55:12;;;;;;;96.65;33.50;;;0.30;99.90;;;;;;5049208;28;20051;-55
2022/12/11 05:57:38;;;;;;;93.87;33.00;;;0.40;99.90;;;;;;5049132;28;20039;-51
2022/12/11 06:00:04;;;;;;;89.23;32.90;;;0.30;99.90;;;;;;5049738;28;20122;-52
2022/12/11 06:02:30;;;;;;;88.05;29.67;;;0.30;99.90;;;;;;5049454;28;20029;-52
2022/12/11 06:04:55;;;;;;;84.67;30.93;;;0.30;99.90;;;;;;5048004;28;20033;-54
2022/12/11 06:07:21;;;;;;;90.87;29.70;;;0.30;99.90;;;;;;5048566;28;20048;-53
2022/12/11 06:09:46;;;;;;;75.23;27.53;;;0.30;99.90;;;;;;5049797;28;20040;-53
2022/12/11 06:12:12;;;;;;;78.07;28.63;;;0.40;99.90;;;;;;5049485;28;20047;-53
2022/12/11 06:14:37;;;;;;;71.10;26.10;;;0.40;99.90;;;;;;5048479;28;20047;-56
2022/12/11 06:17:03;;;;;;;75.10;26.27;;;0.30;99.90;;;;;;5048861;28;20080;-55
2022/12/11 06:19:28;;;;;;;72.30;24.83;;;0.30;99.90;;;;;;5049746;28;20049;-53
2022/12/11 06:21:54;;;;;;;72.73;26.73;;;0.40;99.90;;;;;;5048965;28;20041;-52
2022/12/11 06:24:19;;;;;;;71.93;25.37;;;0.40;99.90;;;;;;5048915;28;20037;-53
2022/12/11 06:26:45;;;;;;;71.07;26.90;;;0.40;99.90;;;;;;5049103;28;20128;-53
2022/12/11 06:29:10;;;;;;;71.33;27.63;;;0.40;99.90;;;;;;5049398;28;20029;-56
2022/12/11 06:31:36;;;;;;;66.97;26.73;;;0.40;99.90;;;;;;5049468;28;20037;-54
2022/12/11 06:34:02;;;;;;;76.87;25.03;;;0.40;99.90;;;;;;5047340;28;20273;-53
2022/12/11 06:36:27;;;;;;;70.77;24.87;;;0.40;99.90;;;;;;5048682;28;20037;-56
2022/12/11 06:38:54;;;;;;;69.57;24.37;;;0.40;99.90;;;;;;5081951;28;20136;-53
2022/12/11 06:41:20;;;;;;;;;;;0.40;99.90;;;;;;5054115;28;20135;-55
2022/12/11 06:43:45;;;;;;;77.97;25.05;;;0.40;99.90;;;;;;5052417;28;19928;-54
2022/12/11 06:46:16;;;;;;;67.47;23.70;;;0.40;99.90;;;;;;5053672;28;20067;-56
2022/12/11 06:48:43;;;;;;;75.63;27.58;;;0.40;99.90;;;;;;5052799;28;20087;-55
2022/12/11 06:51:12;;;;;;;71.93;25.90;;;0.40;99.90;;;;;;5053116;28;20044;-55
2022/12/11 06:53:37;;;;;;;70.00;24.70;;;0.40;99.90;;;;;;5051805;28;20120;-56
2022/12/11 06:56:05;;;;;;;77.95;29.85;;;0.40;99.90;;;;;;5053478;28;20463;-56
2022/12/11 06:58:33;;;;;;;79.80;28.35;;;0.40;99.90;;;;;;5052091;28;20102;-56
2022/12/11 07:00:59;;;;;;;77.55;27.55;;;0.40;99.90;;;;;;5051675;28;20102;-54
2022/12/11 07:03:24;;;;;;;78.00;28.57;;;0.40;99.90;;;;;;5051628;28;20033;-57
2022/12/11 07:05:50;;;;;;;81.43;28.70;;;0.40;99.90;;;;;;5052489;28;20455;-56
2022/12/11 07:08:15;;;;;;;78.90;29.07;;;0.40;99.90;;;;;;5052289;28;20566;-56
2022/12/11 07:10:41;;;;;;;76.30;28.97;;;0.40;99.90;;;;;;5052504;28;20032;-54
2022/12/11 07:13:07;;;;;;;86.57;27.37;;;0.40;99.90;;;;;;5051781;28;20097;-52
2022/12/11 07:15:32;;;;;;;85.77;30.53;;;0.40;99.90;;;;;;5052864;28;20041;-51
2022/12/11 07:17:58;;;;;;;76.50;27.10;;;0.40;99.90;;;;;;5050111;28;20052;-55
2022/12/11 07:20:23;;;;;;;88.23;30.97;;;0.40;99.90;;;;;;5055259;28;20516;-52
2022/12/11 07:22:49;;;;;;;103.63;32.33;;;0.40;99.90;;;;;;5052555;28;20036;-56
2022/12/11 07:25:15;;;;;;;95.47;32.30;;;0.40;99.90;;;;;;5051828;28;20071;-54
2022/12/11 07:27:40;;;;;;;101.67;29.37;;;0.40;99.90;;;;;;5052045;28;20371;-51
2022/12/11 07:30:07;;;;;;;89.70;30.73;;;0.40;99.90;;;;;;5052459;28;20041;-55
2022/12/11 07:32:33;;;;;;;95.72;29.08;;;0.40;99.90;;;;;;5052261;28;20037;-52
2022/12/11 07:34:58;;;;;;;83.47;28.57;;;0.40;99.90;;;;;;5051101;28;20103;-52
2022/12/11 07:37:24;;;;;;;93.30;28.20;;;0.50;99.90;;;;;;5052091;28;20048;-52
2022/12/11 07:39:50;;;;;;;85.57;32.60;;;0.50;99.90;;;;;;5052669;28;20033;-54
2022/12/11 07:42:15;;;;;;;105.47;30.47;;;0.40;99.90;;;;;;5051750;28;20044;-56
2022/12/11 07:44:41;;;;;;;94.17;31.30;;;0.50;99.90;;;;;;5051143;28;20040;-51
2022/12/11 07:47:06;;;;;;;73.40;26.57;;;0.40;99.90;;;;;;5051437;28;20044;-51
2022/12/11 07:49:32;;;;;;;85.13;29.33;;;0.50;99.90;;;;;;5051954;28;20072;-52
2022/12/11 07:51:57;;;;;;;88.17;29.13;;;0.50;99.90;;;;;;5050925;28;20025;-56
2022/12/11 07:54:23;;;;;;;92.50;32.90;;;0.50;99.90;;;;;;5051165;28;20102;-55
2022/12/11 07:56:48;;;;;;;93.20;31.17;;;0.50;99.90;;;;;;5051021;28;20052;-55
2022/12/11 07:59:15;;;;;;;96.10;31.90;;;0.50;99.90;;;;;;5050561;28;20079;-52
2022/12/11 08:01:41;;;;;;;;;;;0.50;99.90;;;;;;5052200;28;20120;-55
2022/12/11 08:04:09;;;;;;;87.72;29.73;;;0.50;99.90;;;;;;5049353;28;20007;-53
2022/12/11 08:06:37;;;;;;;89.55;29.38;;;0.50;99.90;;;;;;5050996;28;20075;-54
2022/12/11 08:09:06;;;;;;;92.65;32.10;;;0.50;99.90;;;;;;5049594;28;20038;-53
2022/12/11 08:11:32;;;;;;;94.50;32.42;;;0.50;99.90;;;;;;5050351;28;20060;-56
2022/12/11 08:13:58;;;;;;;90.47;29.75;;;0.50;99.90;;;;;;5050497;28;20383;-55
2022/12/11 08:16:24;;;;;;;90.78;30.95;;;0.50;99.90;;;;;;5033752;28;20187;-55
2022/12/11 08:18:51;;;;;;;81.05;30.50;;;0.50;99.90;;;;;;5051509;28;20041;-56
2022/12/11 08:21:22;;;;;;;87.18;30.23;;;0.50;99.90;;;;;;5051119;28;20808;-55
2022/12/11 08:23:49;;;;;;;99.60;29.10;;;0.50;99.90;;;;;;5050193;28;20075;-54
2022/12/11 08:26:20;;;;;;;88.45;32.30;;;0.50;99.90;;;;;;5051478;28;20406;-55
2022/12/11 08:28:46;;;;;;;84.32;27.65;;;0.50;99.90;;;;;;5051711;28;20060;-56
2022/12/11 08:31:14;;;;;;;75.60;26.33;;;0.50;99.90;;;;;;5050897;28;20506;-56
2022/12/11 08:33:40;;;;;;;86.28;29.13;;;0.50;99.90;;;;;;5050083;28;20448;-55
2022/12/11 08:36:07;;;;;;;;;;;0.50;99.90;;;;;;5050733;28;20048;-54
2022/12/11 08:38:33;;;;;;;73.63;24.35;;;0.50;99.90;;;;;;5050970;28;19917;-56
2022/12/11 08:41:10;;;;;;;72.07;28.30;;;0.50;99.90;;;;;;5051021;28;20047;-55
2022/12/11 08:43:37;;;;;;;78.20;26.83;;;0.50;99.90;;;;;;5048903;28;20044;-57
2022/12/11 08:46:03;;;;;;;87.25;28.30;;;0.50;99.90;;;;;;5050143;28;20430;-55
2022/12/11 08:48:29;;;;;;;102.60;32.22;;;0.50;99.90;;;;;;5050047;28;20041;-53
2022/12/11 08:50:57;;;;;;;84.67;32.57;;;0.50;99.90;;;;;;5051397;28;20379;-56
2022/12/11 08:53:23;;;;;;;80.05;27.90;;;0.50;99.90;;;;;;5049738;28;20037;-55
2022/12/11 08:55:48;;;;;;;75.67;30.07;;;0.50;99.90;;;;;;5050745;28;20566;-56
2022/12/11 08:58:14;;;;;;;82.63;29.47;;;0.50;99.90;;;;;;5050156;28;21486;-55
2022/12/11 09:00:40;;;;;;;76.00;29.00;;;0.60;99.90;;;;;;5050830;28;20040;-56
2022/12/11 09:03:05;;;;;;;86.57;29.45;;;0.50;99.90;;;;;;5048970;28;20075;-52
2022/12/11 09:05:31;;;;;;;80.73;29.57;;;0.60;99.90;;;;;;5046058;28;20044;-52
2022/12/11 09:07:57;;;;;;;79.57;28.63;;;0.60;99.90;;;;;;5049047;28;20041;-55
2022/12/11 09:10:22;;;;;;;88.88;30.73;;;0.60;99.90;;;;;;5050376;28;20033;-54
2022/12/11 09:12:48;;;;;;;78.37;28.93;;;0.60;99.90;;;;;;5049883;28;20037;-53
2022/12/11 09:15:14;;;;;;;89.73;31.10;;;0.60;99.90;;;;;;5048157;28;20045;-52
2022/12/11 09:17:39;;;;;;;69.47;25.40;;;0.60;99.90;;;;;;5049704;28;20094;-55
2022/12/11 09:20:05;;;;;;;82.37;28.37;;;0.60;99.90;;;;;;5049980;28;20091;-53
2022/12/11 09:22:32;;;;;;;80.57;26.27;;;0.70;99.90;;;;;;5050565;28;20033;-54
2022/12/11 09:24:58;;;;;;;73.00;29.92;;;0.70;99.90;;;;;;5049128;28;20482;-51
2022/12/11 09:27:24;;;;;;;86.70;29.25;;;0.70;99.90;;;;;;5049333;28;20036;-51
2022/12/11 09:29:50;;;;;;;68.63;27.83;;;0.70;99.90;;;;;;5050028;28;20025;-51
2022/12/11 09:32:16;;;;;;;79.28;28.77;;;0.70;99.90;;;;;;5050125;28;20059;-54
2022/12/11 09:34:41;;;;;;;80.57;28.08;;;0.70;99.90;;;;;;5049331;28;20033;-53
2022/12/11 09:37:07;;;;;;;70.13;28.13;;;0.70;99.90;;;;;;5049641;28;20052;-53
2022/12/11 09:39:32;;;;;;;60.30;22.57;;;0.70;99.90;;;;;;5049912;28;20532;-53
2022/12/11 09:42:04;;;;;;;65.20;24.33;;;0.70;99.90;;;;;;5049672;28;20136;-54
2022/12/11 09:44:36;;;;;;;71.15;27.50;;;0.80;99.90;;;;;;5049150;28;20401;-52
2022/12/11 09:47:11;;;;;;;71.32;26.73;;;0.80;99.90;;;;;;5033883;28;20037;-55
2022/12/11 09:49:40;;;;;;;75.72;27.52;;;0.80;99.90;;;;;;5039623;28;20037;-52
2022/12/11 09:52:17;;;;;;;66.20;23.92;;;0.80;99.90;;;;;;5048498;28;20040;-50
2022/12/11 09:54:55;;;;;;;73.40;27.13;;;0.80;99.90;;;;;;5048879;28;20132;-52
2022/12/11 09:57:32;;;;;;;68.05;27.48;;;0.80;99.90;;;;;;5048618;28;20433;-51
2022/12/11 10:00:17;;;;;;;76.10;29.48;;;0.80;99.90;;;;;;5049140;28;20075;-54
2022/12/11 10:02:56;;;;;;;86.22;28.33;;;0.80;99.90;;;;;;5048759;28;20053;-56
2022/12/11 10:05:30;;;;;;;83.05;28.42;;;0.80;99.90;;;;;;5049933;28;20068;-52
2022/12/11 10:08:07;;;;;;;80.60;29.30;;;0.80;99.90;;;;;;5049284;28;20068;-54
2022/12/11 10:11:12;;;;;;;71.00;27.75;;;0.80;99.90;;;;;;5049743;28;20047;-54
2022/12/11 10:13:56;;;;;;;69.53;27.25;;;0.80;99.90;;;;;;5048119;28;20049;-54
2022/12/11 10:16:43;;;;;;;76.90;28.02;;;0.80;99.90;;;;;;5049185;28;20052;-54
2022/12/11 10:19:20;;;;;;;74.10;30.13;;;0.80;99.90;;;;;;5048693;28;20517;-55
2022/12/11 10:21:48;;;;;;;;;;;0.80;99.90;;;;;;5048103;28;20045;-54
2022/12/11 10:24:24;;;;;;;80.80;29.40;;;0.80;99.90;;;;;;5048749;28;19916;-52
2022/12/11 10:26:54;;;;;;;;;;;0.80;99.90;;;;;;5048956;28;20052;-55
2022/12/11 10:29:20;;;;;;;84.80;28.40;;;0.80;99.90;;;;;;5049381;28;19925;-54
2022/12/11 10:31:57;;;;;;;86.90;30.35;;;0.80;99.90;;;;;;5049349;28;20448;-55
2022/12/11 10:34:34;;;;;;;79.43;29.70;;;0.80;99.90;;;;;;5048353;28;20048;-53
2022/12/11 10:37:01;;;;;;;80.75;29.25;;;0.80;99.90;;;;;;5048736;28;20052;-55
2022/12/11 10:39:26;;;;;;;;;;;0.80;99.90;;;;;;5049699;28;20037;-55
2022/12/11 10:41:54;;;;;;;79.32;27.67;;;0.80;99.90;;;;;;5047817;28;20412;-54
2022/12/11 10:44:28;;;;;;;80.22;29.13;;;0.80;99.90;;;;;;5047576;28;20506;-54
2022/12/11 10:47:05;;;;;;;78.68;28.92;;;0.80;99.90;;;;;;5048829;28;20120;-55
2022/12/11 10:49:33;;;;;;;68.53;26.57;;;0.80;99.90;;;;;;5049197;28;20041;-54
2022/12/11 10:52:00;;;;;;;71.43;27.83;;;0.80;99.90;;;;;;5048862;28;20047;-54
2022/12/11 10:54:30;;;;;;;77.28;29.42;;;0.80;99.90;;;;;;5048266;28;20048;-56
2022/12/11 10:56:57;;;;;;;71.80;29.08;;;0.80;99.90;;;;;;5047960;28;20205;-55
2022/12/11 10:59:42;;;;;;;72.55;28.85;;;0.80;99.90;;;;;;5049186;28;20083;-55
2022/12/11 11:02:23;;;;;;;75.13;29.15;;;0.80;99.90;;;;;;5048011;28;20060;-54
2022/12/11 11:04:50;;;;;;;67.95;27.63;;;0.80;99.90;;;;;;5046972;28;20048;-55
2022/12/11 11:07:27;;;;;;;74.00;26.30;;;0.80;99.90;;;;;;5046007;28;20091;-55
2022/12/11 11:10:14;;;;;;;64.95;26.35;;;0.80;99.90;;;;;;5049441;28;20040;-55
2022/12/11 11:12:43;;;;;;;70.53;26.67;;;0.90;99.90;;;;;;5047328;28;20036;-55
2022/12/11 11:15:30;;;;;;;63.78;27.52;;;0.90;99.90;;;;;;5047837;28;20040;-50
2022/12/11 11:18:00;;;;;;;66.57;26.17;;;0.90;99.90;;;;;;5047084;28;20041;-53
2022/12/11 11:20:28;;;;;;;63.38;23.73;;;0.90;99.90;;;;;;5035994;28;20071;-52
2022/12/11 11:22:57;;;;;;;66.38;26.95;;;0.90;99.90;;;;;;5047651;28;20112;-57
2022/12/11 11:25:29;;;;;;;68.15;25.90;;;0.90;99.90;;;;;;5047037;28;20044;-54
2022/12/11 11:28:07;;;;;;;58.25;22.88;;;0.90;99.90;;;;;;5049031;28;20454;-51
2022/12/11 11:30:34;;;;;;;61.55;25.15;;;0.90;99.90;;;;;;5052976;28;20480;-53
2022/12/11 11:33:09;;;;;;;62.78;24.90;;;0.90;99.90;;;;;;5049592;28;20498;-52
2022/12/11 11:35:35;;;;;;;60.55;25.60;;;1.00;99.90;;;;;;5052158;28;20041;-53
2022/12/11 11:38:17;;;;;;;61.83;24.47;;;1.00;99.90;;;;;;5051585;28;20043;-52
2022/12/11 11:41:11;;;;;;;69.18;25.67;;;1.00;99.90;;;;;;5052314;28;20127;-53
2022/12/11 11:43:45;;;;;;;68.53;24.10;;;0.90;99.90;;;;;;5049317;28;20467;-55
2022/12/11 11:46:44;;;;;;;60.78;26.05;;;0.90;99.90;;;;;;5052109;28;20388;-54
2022/12/11 11:49:57;;;;;;;75.35;25.50;;;1.00;99.90;;;;;;5040528;28;20064;-53
2022/12/11 11:52:34;;;;;;;63.17;25.25;;;1.00;99.90;;;;;;5032592;28;20041;-55
2022/12/11 11:55:08;;;;;;;;;;;1.00;99.90;;;;;;5045367;28;20033;-51
2022/12/11 11:58:06;;;;;;;70.38;25.25;;;1.00;99.90;;;;;;5049829;28;20007;-54
2022/12/11 12:00:31;;;;;;;56.83;22.48;;;1.00;99.90;;;;;;5051260;28;20057;-54
2022/12/11 12:03:08;;;;;;;59.93;24.57;;;1.00;99.90;;;;;;5051631;28;20025;-55
2022/12/11 12:05:55;;;;;;;59.75;23.77;;;1.00;99.90;;;;;;5050860;28;20124;-55
2022/12/11 12:09:00;;;;;;;61.45;24.13;;;1.00;99.90;;;;;;5049076;28;20529;-53
2022/12/11 12:11:44;;;;;;;69.78;27.85;;;1.00;99.90;;;;;;5063147;28;20041;-55
2022/12/11 12:14:28;;;;;;;67.90;25.98;;;1.00;99.90;;;;;;5046975;28;20053;-54
2022/12/11 12:17:15;;;;;;;78.13;27.48;;;1.00;99.90;;;;;;5043820;28;20045;-54
2022/12/11 12:19:44;;;;;;;;;;;1.00;99.90;;;;;;5041276;28;20410;-55
2022/12/11 12:22:31;;;;;;;72.57;27.08;;;1.00;99.90;;;;;;5051503;28;20184;-56
2022/12/11 12:25:20;;;;;;;75.35;24.55;;;1.00;99.90;;;;;;5050169;28;20094;-56
2022/12/11 12:28:24;;;;;;;75.35;27.85;;;1.00;99.90;;;;;;5051210;28;20064;-56
2022/12/11 12:31:04;;;;;;;68.55;27.10;;;1.00;99.90;;;;;;5051783;28;20068;-56
2022/12/11 12:33:36;;;;;;;75.30;27.40;;;1.00;99.90;;;;;;5049933;28;20060;-54
2022/12/11 12:36:28;;;;;;;78.53;28.83;;;1.00;99.90;;;;;;5049841;28;20041;-55
2022/12/11 12:39:01;;;;;;;70.72;26.73;;;1.00;99.90;;;;;;5050411;28;20045;-57
2022/12/11 12:41:41;;;;;;;61.38;24.73;;;1.00;99.90;;;;;;5050648;28;20071;-56
2022/12/11 12:44:13;;;;;;;66.38;27.35;;;1.00;99.90;;;;;;5047233;28;20132;-57
2022/12/11 12:46:49;;;;;;;68.50;27.40;;;1.00;99.90;;;;;;5049278;28;20052;-57
2022/12/11 12:49:41;;;;;;;76.20;28.00;;;1.00;99.90;;;;;;5049832;28;20087;-56
2022/12/11 12:52:16;;;;;;;71.97;27.50;;;1.00;99.90;;;;;;5043366;28;20041;-57
2022/12/11 12:55:12;;;;;;;70.13;26.23;;;1.00;99.90;;;;;;5047784;28;20060;-56
2022/12/11 12:57:31;;;;;;;;;;;1.00;99.90;;;;;;5044598;28;20510;-56
2022/12/11 12:59:56;;;;;;;68.30;26.80;;;1.00;99.90;;;;;;5050679;28;19944;-57
2022/12/11 13:02:22;;;;;;;74.13;26.77;;;1.00;99.90;;;;;;5051140;28;20075;-55
2022/12/11 13:04:57;;;;;;;82.73;27.97;;;1.00;99.90;;;;;;5048865;28;20041;-57